sensor_id;sensor_type;location;lat;lon;timestamp;P1;durP1;ratioP1;P2;durP2;ratioP2
71387;SDS011;59201;59.902;10.520;2023-02-13T00:01:21;6.55;;;2.13;;
71387;SDS011;59201;59.902;10.520;2023-02-13T00:03:51;8.80;;;3.00;;
71387;SDS011;59201;59.902;10.520;2023-02-13T00:06:22;9.27;;;2.67;;
71387;SDS011;59201;59.902;10.520;2023-02-13T00:08:50;8.65;;;3.00;;
71387;SDS011;59201;59.902;10.520;2023-02-13T00:11:20;7.57;;;2.78;;
71387;SDS011;59201;59.902;10.520;2023-02-13T00:13:47;8.15;;;3.13;;
71387;SDS011;59201;59.902;10.520;2023-02-13T00:16:16;7.97;;;2.87;;
71387;SDS011;59201;59.902;10.520;2023-02-13T00:18:47;8.77;;;3.20;;
71387;SDS011;59201;59.902;10.520;2023-02-13T00:21:15;8.27;;;2.33;;
71387;SDS011;59201;59.902;10.520;2023-02-13T00:23:45;7.40;;;2.47;;
71387;SDS011;59201;59.902;10.520;2023-02-13T00:26:14;5.85;;;1.65;;
71387;SDS011;59201;59.902;10.520;2023-02-13T00:28:43;5.53;;;1.87;;
71387;SDS011;59201;59.902;10.520;2023-02-13T00:31:12;6.20;;;1.98;;
71387;SDS011;59201;59.902;10.520;2023-02-13T00:33:39;5.32;;;1.60;;
71387;SDS011;59201;59.902;10.520;2023-02-13T00:36:09;6.20;;;1.30;;
71387;SDS011;59201;59.902;10.520;2023-02-13T00:38:38;7.00;;;1.77;;
71387;SDS011;59201;59.902;10.520;2023-02-13T00:41:06;5.50;;;1.17;;
71387;SDS011;59201;59.902;10.520;2023-02-13T00:43:36;4.80;;;1.30;;
71387;SDS011;59201;59.902;10.520;2023-02-13T00:46:05;4.60;;;1.40;;
71387;SDS011;59201;59.902;10.520;2023-02-13T00:48:34;5.35;;;1.60;;
71387;SDS011;59201;59.902;10.520;2023-02-13T00:51:05;6.97;;;1.80;;
71387;SDS011;59201;59.902;10.520;2023-02-13T00:53:37;6.37;;;1.60;;
71387;SDS011;59201;59.902;10.520;2023-02-13T00:56:06;4.38;;;1.10;;
71387;SDS011;59201;59.902;10.520;2023-02-13T00:58:40;5.30;;;1.20;;
71387;SDS011;59201;59.902;10.520;2023-02-13T01:01:10;7.47;;;1.40;;
71387;SDS011;59201;59.902;10.520;2023-02-13T01:03:41;7.32;;;1.30;;
71387;SDS011;59201;59.902;10.520;2023-02-13T01:06:09;4.50;;;1.03;;
71387;SDS011;59201;59.902;10.520;2023-02-13T01:08:40;5.45;;;1.08;;
71387;SDS011;59201;59.902;10.520;2023-02-13T01:11:07;5.30;;;1.30;;
71387;SDS011;59201;59.902;10.520;2023-02-13T01:13:39;4.47;;;1.00;;
71387;SDS011;59201;59.902;10.520;2023-02-13T01:16:08;4.55;;;1.08;;
71387;SDS011;59201;59.902;10.520;2023-02-13T01:18:39;4.77;;;1.20;;
71387;SDS011;59201;59.902;10.520;2023-02-13T01:21:20;4.80;;;0.90;;
71387;SDS011;59201;59.902;10.520;2023-02-13T01:23:51;3.75;;;0.90;;
71387;SDS011;59201;59.902;10.520;2023-02-13T01:26:19;6.78;;;1.00;;
71387;SDS011;59201;59.902;10.520;2023-02-13T01:28:53;5.13;;;1.20;;
71387;SDS011;59201;59.902;10.520;2023-02-13T01:34:48;4.90;;;1.35;;
71387;SDS011;59201;59.902;10.520;2023-02-13T01:37:35;5.70;;;1.42;;
71387;SDS011;59201;59.902;10.520;2023-02-13T01:43:04;4.78;;;1.25;;
71387;SDS011;59201;59.902;10.520;2023-02-13T01:45:34;5.23;;;1.23;;
71387;SDS011;59201;59.902;10.520;2023-02-13T01:48:03;4.30;;;1.10;;
71387;SDS011;59201;59.902;10.520;2023-02-13T01:58:46;2.67;;;0.87;;
71387;SDS011;59201;59.902;10.520;2023-02-13T02:01:17;5.32;;;1.27;;
71387;SDS011;59201;59.902;10.520;2023-02-13T02:03:48;4.75;;;1.25;;
71387;SDS011;59201;59.902;10.520;2023-02-13T02:06:29;5.28;;;1.08;;
71387;SDS011;59201;59.902;10.520;2023-02-13T02:09:00;4.30;;;1.00;;
71387;SDS011;59201;59.902;10.520;2023-02-13T02:14:12;4.22;;;1.10;;
71387;SDS011;59201;59.902;10.520;2023-02-13T02:16:41;5.10;;;1.10;;
71387;SDS011;59201;59.902;10.520;2023-02-13T02:30:20;4.00;;;1.05;;
71387;SDS011;59201;59.902;10.520;2023-02-13T02:38:20;4.90;;;1.10;;
71387;SDS011;59201;59.902;10.520;2023-02-13T02:41:05;5.15;;;1.10;;
71387;SDS011;59201;59.902;10.520;2023-02-13T02:43:43;5.13;;;1.20;;
71387;SDS011;59201;59.902;10.520;2023-02-13T02:46:17;4.03;;;1.13;;
71387;SDS011;59201;59.902;10.520;2023-02-13T02:49:04;3.88;;;0.98;;
71387;SDS011;59201;59.902;10.520;2023-02-13T02:57:24;5.70;;;1.20;;
71387;SDS011;59201;59.902;10.520;2023-02-13T03:00:18;4.90;;;1.10;;
71387;SDS011;59201;59.902;10.520;2023-02-13T03:03:21;6.03;;;0.90;;
71387;SDS011;59201;59.902;10.520;2023-02-13T03:08:58;3.83;;;0.90;;
71387;SDS011;59201;59.902;10.520;2023-02-13T03:11:47;5.43;;;1.10;;
71387;SDS011;59201;59.902;10.520;2023-02-13T03:14:34;4.78;;;0.90;;
71387;SDS011;59201;59.902;10.520;2023-02-13T03:17:02;3.13;;;0.80;;
71387;SDS011;59201;59.902;10.520;2023-02-13T03:25:20;3.67;;;1.00;;
71387;SDS011;59201;59.902;10.520;2023-02-13T03:32:05;4.10;;;1.08;;
71387;SDS011;59201;59.902;10.520;2023-02-13T03:34:05;4.67;;;0.80;;
71387;SDS011;59201;59.902;10.520;2023-02-13T03:42:05;6.10;;;1.20;;
71387;SDS011;59201;59.902;10.520;2023-02-13T03:47:48;5.33;;;1.00;;
71387;SDS011;59201;59.902;10.520;2023-02-13T03:50:18;4.00;;;0.95;;
71387;SDS011;59201;59.902;10.520;2023-02-13T03:55:26;4.30;;;1.02;;
71387;SDS011;59201;59.902;10.520;2023-02-13T03:58:56;2.95;;;0.77;;
71387;SDS011;59201;59.902;10.520;2023-02-13T04:01:24;3.47;;;0.87;;
71387;SDS011;59201;59.902;10.520;2023-02-13T04:03:57;3.00;;;0.75;;
71387;SDS011;59201;59.902;10.520;2023-02-13T04:06:31;2.80;;;0.70;;
71387;SDS011;59201;59.902;10.520;2023-02-13T04:09:01;3.65;;;0.80;;
71387;SDS011;59201;59.902;10.520;2023-02-13T04:14:00;3.33;;;0.80;;
71387;SDS011;59201;59.902;10.520;2023-02-13T04:19:03;2.50;;;0.80;;
71387;SDS011;59201;59.902;10.520;2023-02-13T04:21:32;4.00;;;0.80;;
71387;SDS011;59201;59.902;10.520;2023-02-13T04:24:04;2.67;;;0.80;;
71387;SDS011;59201;59.902;10.520;2023-02-13T04:26:41;5.90;;;1.50;;
71387;SDS011;59201;59.902;10.520;2023-02-13T04:29:23;5.35;;;1.20;;
71387;SDS011;59201;59.902;10.520;2023-02-13T04:31:56;4.00;;;1.02;;
71387;SDS011;59201;59.902;10.520;2023-02-13T04:34:26;4.93;;;1.30;;
71387;SDS011;59201;59.902;10.520;2023-02-13T04:36:55;4.85;;;1.17;;
71387;SDS011;59201;59.902;10.520;2023-02-13T04:39:26;4.37;;;1.07;;
71387;SDS011;59201;59.902;10.520;2023-02-13T04:41:58;5.07;;;1.27;;
71387;SDS011;59201;59.902;10.520;2023-02-13T04:44:27;4.40;;;0.90;;
71387;SDS011;59201;59.902;10.520;2023-02-13T04:46:56;2.97;;;0.85;;
71387;SDS011;59201;59.902;10.520;2023-02-13T04:49:24;2.70;;;1.00;;
71387;SDS011;59201;59.902;10.520;2023-02-13T04:51:58;4.03;;;1.00;;
71387;SDS011;59201;59.902;10.520;2023-02-13T04:54:26;4.20;;;1.10;;
71387;SDS011;59201;59.902;10.520;2023-02-13T04:57:04;4.80;;;0.90;;
71387;SDS011;59201;59.902;10.520;2023-02-13T04:59:34;5.38;;;1.30;;
71387;SDS011;59201;59.902;10.520;2023-02-13T05:02:03;4.07;;;1.08;;
71387;SDS011;59201;59.902;10.520;2023-02-13T05:04:33;5.07;;;1.00;;
71387;SDS011;59201;59.902;10.520;2023-02-13T05:07:01;4.40;;;0.90;;
71387;SDS011;59201;59.902;10.520;2023-02-13T05:09:29;5.32;;;1.10;;
71387;SDS011;59201;59.902;10.520;2023-02-13T05:11:57;4.70;;;1.10;;
71387;SDS011;59201;59.902;10.520;2023-02-13T05:14:25;5.80;;;1.20;;
71387;SDS011;59201;59.902;10.520;2023-02-13T05:16:53;4.70;;;1.10;;
71387;SDS011;59201;59.902;10.520;2023-02-13T05:19:22;5.28;;;1.10;;
71387;SDS011;59201;59.902;10.520;2023-02-13T05:21:52;2.67;;;0.80;;
71387;SDS011;59201;59.902;10.520;2023-02-13T05:24:37;2.53;;;0.70;;
71387;SDS011;59201;59.902;10.520;2023-02-13T05:27:05;4.40;;;1.20;;
71387;SDS011;59201;59.902;10.520;2023-02-13T05:29:34;4.47;;;1.20;;
71387;SDS011;59201;59.902;10.520;2023-02-13T05:32:02;4.93;;;1.35;;
71387;SDS011;59201;59.902;10.520;2023-02-13T05:34:35;6.88;;;1.88;;
71387;SDS011;59201;59.902;10.520;2023-02-13T05:37:04;5.20;;;1.40;;
71387;SDS011;59201;59.902;10.520;2023-02-13T05:39:37;5.00;;;1.50;;
71387;SDS011;59201;59.902;10.520;2023-02-13T05:42:07;5.07;;;1.20;;
71387;SDS011;59201;59.902;10.520;2023-02-13T05:44:36;5.72;;;1.40;;
71387;SDS011;59201;59.902;10.520;2023-02-13T05:47:02;5.10;;;1.35;;
71387;SDS011;59201;59.902;10.520;2023-02-13T05:49:29;5.07;;;1.20;;
71387;SDS011;59201;59.902;10.520;2023-02-13T05:51:55;3.83;;;1.10;;
71387;SDS011;59201;59.902;10.520;2023-02-13T05:54:21;4.27;;;1.13;;
71387;SDS011;59201;59.902;10.520;2023-02-13T05:56:47;4.30;;;0.90;;
71387;SDS011;59201;59.902;10.520;2023-02-13T05:59:13;5.90;;;1.35;;
71387;SDS011;59201;59.902;10.520;2023-02-13T06:01:39;5.15;;;1.40;;
71387;SDS011;59201;59.902;10.520;2023-02-13T06:04:05;5.70;;;1.40;;
71387;SDS011;59201;59.902;10.520;2023-02-13T06:06:32;5.40;;;1.40;;
71387;SDS011;59201;59.902;10.520;2023-02-13T06:08:58;5.90;;;1.30;;
71387;SDS011;59201;59.902;10.520;2023-02-13T06:11:24;5.10;;;1.40;;
71387;SDS011;59201;59.902;10.520;2023-02-13T06:13:50;4.75;;;1.27;;
71387;SDS011;59201;59.902;10.520;2023-02-13T06:16:16;8.57;;;2.50;;
71387;SDS011;59201;59.902;10.520;2023-02-13T06:18:42;5.23;;;1.53;;
71387;SDS011;59201;59.902;10.520;2023-02-13T06:21:08;4.30;;;1.10;;
71387;SDS011;59201;59.902;10.520;2023-02-13T06:23:34;4.40;;;1.10;;
71387;SDS011;59201;59.902;10.520;2023-02-13T06:26:02;4.97;;;1.30;;
71387;SDS011;59201;59.902;10.520;2023-02-13T06:28:28;4.35;;;1.00;;
71387;SDS011;59201;59.902;10.520;2023-02-13T06:30:54;5.47;;;1.20;;
71387;SDS011;59201;59.902;10.520;2023-02-13T06:33:20;5.03;;;1.20;;
71387;SDS011;59201;59.902;10.520;2023-02-13T06:35:46;4.28;;;1.27;;
71387;SDS011;59201;59.902;10.520;2023-02-13T06:38:12;5.38;;;1.58;;
71387;SDS011;59201;59.902;10.520;2023-02-13T06:40:38;4.65;;;1.10;;
71387;SDS011;59201;59.902;10.520;2023-02-13T06:43:04;4.60;;;1.30;;
71387;SDS011;59201;59.902;10.520;2023-02-13T06:45:30;5.32;;;1.50;;
71387;SDS011;59201;59.902;10.520;2023-02-13T06:47:57;7.13;;;1.60;;
71387;SDS011;59201;59.902;10.520;2023-02-13T06:50:23;5.45;;;1.33;;
71387;SDS011;59201;59.902;10.520;2023-02-13T06:52:49;6.72;;;1.27;;
71387;SDS011;59201;59.902;10.520;2023-02-13T06:55:16;7.07;;;1.70;;
71387;SDS011;59201;59.902;10.520;2023-02-13T06:57:43;10.80;;;1.70;;
71387;SDS011;59201;59.902;10.520;2023-02-13T07:00:09;8.32;;;1.85;;
71387;SDS011;59201;59.902;10.520;2023-02-13T07:02:37;5.30;;;1.55;;
71387;SDS011;59201;59.902;10.520;2023-02-13T07:05:04;5.50;;;1.40;;
71387;SDS011;59201;59.902;10.520;2023-02-13T07:07:34;5.70;;;1.60;;
71387;SDS011;59201;59.902;10.520;2023-02-13T07:10:00;6.25;;;1.73;;
71387;SDS011;59201;59.902;10.520;2023-02-13T07:12:27;6.35;;;1.92;;
71387;SDS011;59201;59.902;10.520;2023-02-13T07:14:53;8.50;;;1.63;;
71387;SDS011;59201;59.902;10.520;2023-02-13T07:17:19;6.28;;;2.20;;
71387;SDS011;59201;59.902;10.520;2023-02-13T07:19:45;8.57;;;3.30;;
71387;SDS011;59201;59.902;10.520;2023-02-13T07:22:11;8.43;;;2.50;;
71387;SDS011;59201;59.902;10.520;2023-02-13T07:24:37;6.43;;;2.00;;
71387;SDS011;59201;59.902;10.520;2023-02-13T07:27:04;8.32;;;3.10;;
71387;SDS011;59201;59.902;10.520;2023-02-13T07:29:30;9.20;;;3.15;;
71387;SDS011;59201;59.902;10.520;2023-02-13T07:31:56;10.13;;;3.10;;
71387;SDS011;59201;59.902;10.520;2023-02-13T07:34:22;7.63;;;2.90;;
71387;SDS011;59201;59.902;10.520;2023-02-13T07:36:48;7.25;;;2.28;;
71387;SDS011;59201;59.902;10.520;2023-02-13T07:39:14;7.70;;;2.10;;
71387;SDS011;59201;59.902;10.520;2023-02-13T07:41:40;8.23;;;2.90;;
71387;SDS011;59201;59.902;10.520;2023-02-13T07:44:06;7.67;;;1.87;;
71387;SDS011;59201;59.902;10.520;2023-02-13T07:46:33;8.55;;;2.58;;
71387;SDS011;59201;59.902;10.520;2023-02-13T07:48:59;8.15;;;2.85;;
71387;SDS011;59201;59.902;10.520;2023-02-13T07:51:25;9.77;;;3.28;;
71387;SDS011;59201;59.902;10.520;2023-02-13T07:53:53;8.02;;;3.22;;
71387;SDS011;59201;59.902;10.520;2023-02-13T07:56:19;6.87;;;2.70;;
71387;SDS011;59201;59.902;10.520;2023-02-13T07:58:45;10.27;;;3.10;;
71387;SDS011;59201;59.902;10.520;2023-02-13T08:01:12;9.15;;;3.38;;
71387;SDS011;59201;59.902;10.520;2023-02-13T08:03:38;9.70;;;4.18;;
71387;SDS011;59201;59.902;10.520;2023-02-13T08:06:05;8.07;;;3.22;;
71387;SDS011;59201;59.902;10.520;2023-02-13T08:08:32;8.30;;;2.63;;
71387;SDS011;59201;59.902;10.520;2023-02-13T08:11:02;8.85;;;2.60;;
71387;SDS011;59201;59.902;10.520;2023-02-13T08:13:47;7.68;;;2.35;;
71387;SDS011;59201;59.902;10.520;2023-02-13T08:16:13;7.05;;;2.15;;
71387;SDS011;59201;59.902;10.520;2023-02-13T08:18:39;6.80;;;2.28;;
71387;SDS011;59201;59.902;10.520;2023-02-13T08:21:06;6.90;;;2.00;;
71387;SDS011;59201;59.902;10.520;2023-02-13T08:23:32;7.38;;;2.05;;
71387;SDS011;59201;59.902;10.520;2023-02-13T08:25:58;6.85;;;2.25;;
71387;SDS011;59201;59.902;10.520;2023-02-13T08:28:25;9.68;;;1.98;;
71387;SDS011;59201;59.902;10.520;2023-02-13T08:30:52;6.90;;;2.03;;
71387;SDS011;59201;59.902;10.520;2023-02-13T08:33:18;6.63;;;1.73;;
71387;SDS011;59201;59.902;10.520;2023-02-13T08:35:44;8.25;;;2.00;;
71387;SDS011;59201;59.902;10.520;2023-02-13T08:38:10;5.82;;;2.20;;
71387;SDS011;59201;59.902;10.520;2023-02-13T08:40:36;5.90;;;1.92;;
71387;SDS011;59201;59.902;10.520;2023-02-13T08:43:03;6.07;;;1.92;;
71387;SDS011;59201;59.902;10.520;2023-02-13T08:45:29;7.27;;;1.70;;
71387;SDS011;59201;59.902;10.520;2023-02-13T08:47:58;7.65;;;1.80;;
71387;SDS011;59201;59.902;10.520;2023-02-13T08:50:25;7.68;;;1.65;;
71387;SDS011;59201;59.902;10.520;2023-02-13T08:52:51;5.97;;;1.38;;
71387;SDS011;59201;59.902;10.520;2023-02-13T08:55:18;6.57;;;1.40;;
71387;SDS011;59201;59.902;10.520;2023-02-13T08:57:44;5.40;;;1.40;;
71387;SDS011;59201;59.902;10.520;2023-02-13T09:00:10;6.47;;;1.77;;
71387;SDS011;59201;59.902;10.520;2023-02-13T09:02:36;8.43;;;1.75;;
71387;SDS011;59201;59.902;10.520;2023-02-13T09:05:03;7.35;;;2.13;;
71387;SDS011;59201;59.902;10.520;2023-02-13T09:07:29;6.88;;;2.17;;
71387;SDS011;59201;59.902;10.520;2023-02-13T09:09:55;6.97;;;2.37;;
71387;SDS011;59201;59.902;10.520;2023-02-13T09:12:21;5.85;;;2.22;;
71387;SDS011;59201;59.902;10.520;2023-02-13T09:14:47;5.63;;;1.60;;
71387;SDS011;59201;59.902;10.520;2023-02-13T09:17:13;5.55;;;1.55;;
71387;SDS011;59201;59.902;10.520;2023-02-13T09:19:42;5.50;;;1.65;;
71387;SDS011;59201;59.902;10.520;2023-02-13T09:22:09;4.87;;;1.50;;
71387;SDS011;59201;59.902;10.520;2023-02-13T09:24:35;6.38;;;1.70;;
71387;SDS011;59201;59.902;10.520;2023-02-13T09:27:04;4.63;;;1.45;;
71387;SDS011;59201;59.902;10.520;2023-02-13T09:29:32;5.18;;;1.60;;
71387;SDS011;59201;59.902;10.520;2023-02-13T09:31:58;6.00;;;1.63;;
71387;SDS011;59201;59.902;10.520;2023-02-13T09:34:24;9.13;;;2.90;;
71387;SDS011;59201;59.902;10.520;2023-02-13T09:36:53;8.25;;;2.80;;
71387;SDS011;59201;59.902;10.520;2023-02-13T09:39:19;9.48;;;3.08;;
71387;SDS011;59201;59.902;10.520;2023-02-13T09:41:46;7.35;;;2.63;;
71387;SDS011;59201;59.902;10.520;2023-02-13T09:46:59;6.23;;;2.07;;
71387;SDS011;59201;59.902;10.520;2023-02-13T09:49:29;7.47;;;2.30;;
71387;SDS011;59201;59.902;10.520;2023-02-13T09:51:55;7.05;;;2.60;;
71387;SDS011;59201;59.902;10.520;2023-02-13T09:54:22;9.93;;;2.78;;
71387;SDS011;59201;59.902;10.520;2023-02-13T09:56:54;14.10;;;6.05;;
71387;SDS011;59201;59.902;10.520;2023-02-13T10:07:38;8.77;;;2.78;;
71387;SDS011;59201;59.902;10.520;2023-02-13T10:17:47;9.18;;;2.55;;
71387;SDS011;59201;59.902;10.520;2023-02-13T10:20:21;7.05;;;2.78;;
71387;SDS011;59201;59.902;10.520;2023-02-13T10:23:26;9.00;;;2.95;;
71387;SDS011;59201;59.902;10.520;2023-02-13T10:25:45;8.70;;;2.70;;
71387;SDS011;59201;59.902;10.520;2023-02-13T10:28:14;9.90;;;3.17;;
71387;SDS011;59201;59.902;10.520;2023-02-13T10:30:45;8.68;;;3.13;;
71387;SDS011;59201;59.902;10.520;2023-02-13T10:36:03;7.60;;;2.75;;
71387;SDS011;59201;59.902;10.520;2023-02-13T10:38:32;6.50;;;2.30;;
71387;SDS011;59201;59.902;10.520;2023-02-13T10:48:47;10.13;;;2.80;;
71387;SDS011;59201;59.902;10.520;2023-02-13T10:54:09;8.48;;;2.30;;
71387;SDS011;59201;59.902;10.520;2023-02-13T10:56:41;11.30;;;2.50;;
71387;SDS011;59201;59.902;10.520;2023-02-13T11:01:56;14.20;;;3.13;;
71387;SDS011;59201;59.902;10.520;2023-02-13T11:04:27;11.23;;;2.70;;
71387;SDS011;59201;59.902;10.520;2023-02-13T11:06:55;8.25;;;3.00;;
71387;SDS011;59201;59.902;10.520;2023-02-13T11:09:22;10.30;;;3.40;;
71387;SDS011;59201;59.902;10.520;2023-02-13T11:11:48;9.55;;;3.40;;
71387;SDS011;59201;59.902;10.520;2023-02-13T11:14:19;11.30;;;3.67;;
71387;SDS011;59201;59.902;10.520;2023-02-13T11:16:56;10.10;;;2.90;;
71387;SDS011;59201;59.902;10.520;2023-02-13T11:21:52;13.05;;;3.33;;
71387;SDS011;59201;59.902;10.520;2023-02-13T11:24:20;8.55;;;2.83;;
71387;SDS011;59201;59.902;10.520;2023-02-13T11:26:49;7.65;;;2.53;;
71387;SDS011;59201;59.902;10.520;2023-02-13T11:29:17;11.13;;;2.50;;
71387;SDS011;59201;59.902;10.520;2023-02-13T11:31:45;9.65;;;2.70;;
71387;SDS011;59201;59.902;10.520;2023-02-13T11:36:43;9.02;;;3.00;;
71387;SDS011;59201;59.902;10.520;2023-02-13T11:39:20;9.68;;;2.47;;
71387;SDS011;59201;59.902;10.520;2023-02-13T11:41:46;8.97;;;3.10;;
71387;SDS011;59201;59.902;10.520;2023-02-13T11:46:48;15.90;;;3.92;;
71387;SDS011;59201;59.902;10.520;2023-02-13T11:49:16;13.02;;;3.30;;
71387;SDS011;59201;59.902;10.520;2023-02-13T11:51:53;10.45;;;3.13;;
71387;SDS011;59201;59.902;10.520;2023-02-13T12:00:26;12.82;;;3.83;;
71387;SDS011;59201;59.902;10.520;2023-02-13T12:02:54;9.70;;;2.97;;
71387;SDS011;59201;59.902;10.520;2023-02-13T12:05:24;9.85;;;3.17;;
71387;SDS011;59201;59.902;10.520;2023-02-13T12:07:51;9.20;;;3.07;;
71387;SDS011;59201;59.902;10.520;2023-02-13T12:12:52;8.73;;;3.30;;
71387;SDS011;59201;59.902;10.520;2023-02-13T12:15:28;9.00;;;2.97;;
71387;SDS011;59201;59.902;10.520;2023-02-13T12:18:01;9.10;;;2.67;;
71387;SDS011;59201;59.902;10.520;2023-02-13T12:20:29;8.07;;;2.70;;
71387;SDS011;59201;59.902;10.520;2023-02-13T12:23:05;9.25;;;3.33;;
71387;SDS011;59201;59.902;10.520;2023-02-13T12:25:41;9.05;;;3.10;;
71387;SDS011;59201;59.902;10.520;2023-02-13T12:28:14;9.93;;;2.90;;
71387;SDS011;59201;59.902;10.520;2023-02-13T12:30:48;11.73;;;3.13;;
71387;SDS011;59201;59.902;10.520;2023-02-13T12:35:44;8.93;;;2.72;;
71387;SDS011;59201;59.902;10.520;2023-02-13T12:40:53;10.13;;;3.97;;
71387;SDS011;59201;59.902;10.520;2023-02-13T12:45:57;11.30;;;2.77;;
71387;SDS011;59201;59.902;10.520;2023-02-13T12:51:03;9.60;;;2.50;;
71387;SDS011;59201;59.902;10.520;2023-02-13T13:09:19;9.73;;;2.58;;
71387;SDS011;59201;59.902;10.520;2023-02-13T13:19:55;8.10;;;2.20;;
71387;SDS011;59201;59.902;10.520;2023-02-13T13:22:17;8.07;;;2.03;;
71387;SDS011;59201;59.902;10.520;2023-02-13T13:27:41;7.45;;;1.60;;
71387;SDS011;59201;59.902;10.520;2023-02-13T13:30:19;6.20;;;1.33;;
71387;SDS011;59201;59.902;10.520;2023-02-13T13:32:51;6.05;;;1.30;;
71387;SDS011;59201;59.902;10.520;2023-02-13T13:35:19;5.82;;;1.50;;
71387;SDS011;59201;59.902;10.520;2023-02-13T13:38:04;5.87;;;1.10;;
71387;SDS011;59201;59.902;10.520;2023-02-13T13:46:02;6.13;;;1.10;;
71387;SDS011;59201;59.902;10.520;2023-02-13T13:50:59;5.00;;;1.20;;
71387;SDS011;59201;59.902;10.520;2023-02-13T13:53:25;6.35;;;1.13;;
71387;SDS011;59201;59.902;10.520;2023-02-13T14:03:40;5.70;;;1.30;;
71387;SDS011;59201;59.902;10.520;2023-02-13T14:06:10;5.97;;;1.55;;
71387;SDS011;59201;59.902;10.520;2023-02-13T14:11:28;6.53;;;1.50;;
71387;SDS011;59201;59.902;10.520;2023-02-13T14:13:54;6.38;;;1.38;;
71387;SDS011;59201;59.902;10.520;2023-02-13T14:16:40;5.13;;;1.40;;
71387;SDS011;59201;59.902;10.520;2023-02-13T14:19:21;5.40;;;1.20;;
71387;SDS011;59201;59.902;10.520;2023-02-13T14:21:48;5.25;;;1.67;;
71387;SDS011;59201;59.902;10.520;2023-02-13T14:24:15;6.35;;;1.50;;
71387;SDS011;59201;59.902;10.520;2023-02-13T14:26:48;7.85;;;1.67;;
71387;SDS011;59201;59.902;10.520;2023-02-13T14:29:25;6.00;;;1.30;;
71387;SDS011;59201;59.902;10.520;2023-02-13T14:32:12;5.47;;;1.40;;
71387;SDS011;59201;59.902;10.520;2023-02-13T14:34:40;4.57;;;1.17;;
71387;SDS011;59201;59.902;10.520;2023-02-13T14:39:41;5.70;;;1.10;;
71387;SDS011;59201;59.902;10.520;2023-02-13T14:42:24;9.93;;;1.67;;
71387;SDS011;59201;59.902;10.520;2023-02-13T14:45:00;5.88;;;1.30;;
71387;SDS011;59201;59.902;10.520;2023-02-13T14:47:29;7.32;;;1.40;;
71387;SDS011;59201;59.902;10.520;2023-02-13T14:49:56;4.75;;;1.10;;
71387;SDS011;59201;59.902;10.520;2023-02-13T14:52:27;5.85;;;1.10;;
71387;SDS011;59201;59.902;10.520;2023-02-13T14:54:58;6.00;;;1.20;;
71387;SDS011;59201;59.902;10.520;2023-02-13T14:57:26;5.43;;;1.50;;
71387;SDS011;59201;59.902;10.520;2023-02-13T15:00:07;4.97;;;1.30;;
71387;SDS011;59201;59.902;10.520;2023-02-13T15:02:35;8.00;;;1.40;;
71387;SDS011;59201;59.902;10.520;2023-02-13T15:05:09;5.57;;;1.40;;
71387;SDS011;59201;59.902;10.520;2023-02-13T15:07:39;7.77;;;1.60;;
71387;SDS011;59201;59.902;10.520;2023-02-13T15:12:56;4.22;;;1.20;;
71387;SDS011;59201;59.902;10.520;2023-02-13T15:15:26;4.93;;;1.00;;
71387;SDS011;59201;59.902;10.520;2023-02-13T15:18:03;4.95;;;1.27;;
71387;SDS011;59201;59.902;10.520;2023-02-13T15:20:33;6.23;;;1.30;;
71387;SDS011;59201;59.902;10.520;2023-02-13T15:22:59;4.95;;;1.20;;
71387;SDS011;59201;59.902;10.520;2023-02-13T15:27:55;4.38;;;1.05;;
71387;SDS011;59201;59.902;10.520;2023-02-13T15:30:27;4.28;;;1.30;;
71387;SDS011;59201;59.902;10.520;2023-02-13T15:33:00;6.90;;;1.40;;
71387;SDS011;59201;59.902;10.520;2023-02-13T15:35:27;3.53;;;0.90;;
71387;SDS011;59201;59.902;10.520;2023-02-13T15:37:55;6.65;;;1.20;;
71387;SDS011;59201;59.902;10.520;2023-02-13T15:40:23;8.80;;;3.30;;
71387;SDS011;59201;59.902;10.520;2023-02-13T15:42:49;7.55;;;2.47;;
71387;SDS011;59201;59.902;10.520;2023-02-13T15:45:16;6.23;;;1.90;;
71387;SDS011;59201;59.902;10.520;2023-02-13T15:47:43;6.20;;;1.30;;
71387;SDS011;59201;59.902;10.520;2023-02-13T15:50:27;7.63;;;1.42;;
71387;SDS011;59201;59.902;10.520;2023-02-13T15:52:54;4.75;;;1.17;;
71387;SDS011;59201;59.902;10.520;2023-02-13T15:55:22;5.35;;;1.20;;
71387;SDS011;59201;59.902;10.520;2023-02-13T15:57:48;5.17;;;1.33;;
71387;SDS011;59201;59.902;10.520;2023-02-13T16:00:17;8.20;;;1.80;;
71387;SDS011;59201;59.902;10.520;2023-02-13T16:02:45;7.72;;;2.00;;
71387;SDS011;59201;59.902;10.520;2023-02-13T16:05:13;5.47;;;2.00;;
71387;SDS011;59201;59.902;10.520;2023-02-13T16:07:52;5.28;;;1.60;;
71387;SDS011;59201;59.902;10.520;2023-02-13T16:10:26;7.30;;;1.63;;
71387;SDS011;59201;59.902;10.520;2023-02-13T16:12:52;4.55;;;1.40;;
71387;SDS011;59201;59.902;10.520;2023-02-13T16:15:19;6.38;;;1.50;;
71387;SDS011;59201;59.902;10.520;2023-02-13T16:17:46;9.13;;;2.15;;
71387;SDS011;59201;59.902;10.520;2023-02-13T16:23:00;8.53;;;1.70;;
71387;SDS011;59201;59.902;10.520;2023-02-13T16:27:52;7.30;;;2.45;;
71387;SDS011;59201;59.902;10.520;2023-02-13T16:30:32;8.50;;;2.38;;
71387;SDS011;59201;59.902;10.520;2023-02-13T16:35:54;7.20;;;1.93;;
71387;SDS011;59201;59.902;10.520;2023-02-13T16:40:46;8.68;;;2.33;;
71387;SDS011;59201;59.902;10.520;2023-02-13T16:46:12;8.63;;;2.78;;
71387;SDS011;59201;59.902;10.520;2023-02-13T16:48:43;10.40;;;3.07;;
71387;SDS011;59201;59.902;10.520;2023-02-13T16:51:10;12.10;;;4.28;;
71387;SDS011;59201;59.902;10.520;2023-02-13T16:53:36;8.23;;;3.15;;
71387;SDS011;59201;59.902;10.520;2023-02-13T16:56:05;5.57;;;2.15;;
71387;SDS011;59201;59.902;10.520;2023-02-13T16:58:32;6.50;;;2.20;;
71387;SDS011;59201;59.902;10.520;2023-02-13T17:00:58;6.73;;;2.30;;
71387;SDS011;59201;59.902;10.520;2023-02-13T17:03:26;8.02;;;2.70;;
71387;SDS011;59201;59.902;10.520;2023-02-13T17:05:52;7.55;;;3.05;;
71387;SDS011;59201;59.902;10.520;2023-02-13T17:08:19;6.28;;;2.47;;
71387;SDS011;59201;59.902;10.520;2023-02-13T17:11:07;7.35;;;2.65;;
71387;SDS011;59201;59.902;10.520;2023-02-13T17:13:32;8.27;;;2.57;;
71387;SDS011;59201;59.902;10.520;2023-02-13T17:15:58;8.80;;;3.15;;
71387;SDS011;59201;59.902;10.520;2023-02-13T17:18:25;10.20;;;4.70;;
71387;SDS011;59201;59.902;10.520;2023-02-13T17:20:51;9.25;;;3.92;;
71387;SDS011;59201;59.902;10.520;2023-02-13T17:23:20;8.65;;;3.00;;
71387;SDS011;59201;59.902;10.520;2023-02-13T17:25:46;8.40;;;2.60;;
71387;SDS011;59201;59.902;10.520;2023-02-13T17:28:23;5.97;;;2.22;;
71387;SDS011;59201;59.902;10.520;2023-02-13T17:30:51;8.20;;;2.58;;
71387;SDS011;59201;59.902;10.520;2023-02-13T17:33:21;8.20;;;3.20;;
71387;SDS011;59201;59.902;10.520;2023-02-13T17:35:47;8.90;;;4.03;;
71387;SDS011;59201;59.902;10.520;2023-02-13T17:38:13;9.67;;;3.30;;
71387;SDS011;59201;59.902;10.520;2023-02-13T17:40:40;8.05;;;2.97;;
71387;SDS011;59201;59.902;10.520;2023-02-13T17:43:08;8.10;;;3.08;;
71387;SDS011;59201;59.902;10.520;2023-02-13T17:45:34;9.32;;;3.60;;
71387;SDS011;59201;59.902;10.520;2023-02-13T17:48:00;8.93;;;3.53;;
71387;SDS011;59201;59.902;10.520;2023-02-13T17:50:27;7.60;;;2.97;;
71387;SDS011;59201;59.902;10.520;2023-02-13T17:52:54;8.30;;;3.38;;
71387;SDS011;59201;59.902;10.520;2023-02-13T17:55:21;8.00;;;2.78;;
71387;SDS011;59201;59.902;10.520;2023-02-13T17:57:48;7.00;;;2.38;;
71387;SDS011;59201;59.902;10.520;2023-02-13T18:00:15;8.90;;;2.75;;
71387;SDS011;59201;59.902;10.520;2023-02-13T18:02:41;7.77;;;2.40;;
71387;SDS011;59201;59.902;10.520;2023-02-13T18:05:08;6.80;;;2.70;;